createdAt,value
2023-05-10T00:00:11.478Z,19.00
2023-05-10T00:01:11.445Z,19.90
2023-05-10T00:02:11.629Z,19.60
2023-05-10T00:03:11.713Z,18.90
2023-05-10T00:04:11.459Z,19.30
2023-05-10T00:05:11.450Z,19.00
2023-05-10T00:06:11.393Z,19.10
2023-05-10T00:07:11.395Z,18.60
2023-05-10T00:08:11.482Z,18.60
2023-05-10T00:09:11.390Z,19.30
2023-05-10T00:10:11.393Z,20.20
2023-05-10T00:11:11.390Z,19.50
2023-05-10T00:12:11.366Z,19.90
2023-05-10T00:13:11.515Z,19.50
2023-05-10T00:14:11.337Z,18.60
2023-05-10T00:15:11.404Z,19.40
2023-05-10T00:16:11.364Z,19.10
2023-05-10T00:17:11.297Z,20.00
2023-05-10T00:18:11.277Z,18.80
2023-05-10T00:19:11.394Z,18.40
2023-05-10T00:20:11.258Z,17.80
2023-05-10T00:21:11.255Z,17.70
2023-05-10T00:22:11.331Z,17.60
2023-05-10T00:23:11.299Z,16.90
2023-05-10T00:24:11.288Z,17.70
2023-05-10T00:25:11.234Z,16.80
2023-05-10T00:26:11.191Z,17.50
2023-05-10T00:27:11.183Z,16.30
2023-05-10T00:28:11.265Z,15.80
2023-05-10T00:29:11.308Z,13.90
2023-05-10T00:30:11.197Z,15.00
2023-05-10T00:31:11.141Z,15.30
2023-05-10T00:32:10.976Z,15.30
2023-05-10T00:33:11.011Z,15.30
2023-05-10T00:34:11.032Z,15.20
2023-05-10T00:35:11.238Z,14.90
2023-05-10T00:36:11.073Z,14.50
2023-05-10T00:37:11.077Z,14.90
2023-05-10T00:38:11.087Z,14.60
2023-05-10T00:39:11.099Z,14.40
2023-05-10T00:40:11.187Z,14.30
2023-05-10T00:41:11.047Z,14.30
2023-05-10T00:42:11.109Z,15.10
2023-05-10T00:43:11.056Z,14.30
2023-05-10T00:44:11.056Z,14.80
2023-05-10T00:45:10.974Z,13.50
2023-05-10T00:46:11.061Z,14.00
2023-05-10T00:47:10.961Z,14.80
2023-05-10T00:48:11.045Z,15.10
2023-05-10T00:49:10.976Z,14.50
2023-05-10T00:50:10.973Z,15.80
2023-05-10T00:51:10.975Z,15.00
2023-05-10T00:52:11.068Z,16.00
2023-05-10T00:53:10.989Z,14.60
2023-05-10T00:54:10.924Z,15.40
2023-05-10T00:55:10.941Z,15.70
2023-05-10T00:56:10.952Z,16.10
2023-05-10T00:57:10.983Z,16.20
2023-05-10T00:58:10.906Z,18.70
2023-05-10T00:59:10.844Z,17.40
2023-05-10T01:00:10.916Z,17.60
2023-05-10T01:01:10.951Z,18.70
2023-05-10T01:02:10.833Z,18.10
2023-05-10T01:03:10.972Z,17.80
2023-05-10T01:04:10.812Z,19.20
2023-05-10T01:05:10.882Z,17.50
2023-05-10T01:06:10.835Z,17.50
2023-05-10T01:07:10.820Z,19.00
2023-05-10T01:08:10.772Z,18.10
2023-05-10T01:09:10.785Z,18.70
2023-05-10T01:10:10.799Z,17.40
2023-05-10T01:11:10.817Z,17.40
2023-05-10T01:12:10.754Z,17.10
2023-05-10T01:13:10.957Z,17.50
2023-05-10T01:14:10.854Z,17.20
2023-05-10T01:15:10.666Z,16.80
2023-05-10T01:16:10.804Z,17.10
2023-05-10T01:17:10.721Z,17.20
2023-05-10T01:18:10.662Z,16.60
2023-05-10T01:19:10.751Z,16.50
2023-05-10T01:20:10.598Z,16.80
2023-05-10T01:21:10.711Z,16.60
2023-05-10T01:22:10.612Z,17.30
2023-05-10T01:23:10.635Z,17.20
2023-05-10T01:24:10.719Z,18.30
2023-05-10T01:25:10.641Z,17.30
2023-05-10T01:26:10.553Z,19.20
2023-05-10T01:27:10.542Z,17.50
2023-05-10T01:28:10.537Z,18.00
2023-05-10T01:29:10.523Z,16.70
2023-05-10T01:30:21.988Z,19.40
2023-05-10T01:31:10.678Z,19.60
2023-05-10T01:32:10.560Z,18.20
2023-05-10T01:33:10.535Z,22.50
2023-05-10T01:34:10.500Z,23.00
2023-05-10T01:35:10.644Z,23.00
2023-05-10T01:36:10.555Z,24.20
2023-05-10T01:37:10.342Z,24.30
2023-05-10T01:38:10.446Z,23.50
2023-05-10T01:39:10.459Z,24.10
2023-05-10T01:40:10.477Z,23.90
2023-05-10T01:41:10.411Z,23.90
2023-05-10T01:42:10.499Z,23.50
2023-05-10T01:43:10.431Z,26.10
2023-05-10T01:44:10.361Z,25.40
2023-05-10T01:45:10.370Z,25.50
2023-05-10T01:46:10.413Z,25.70
2023-05-10T01:47:10.194Z,23.00
2023-05-10T01:48:10.570Z,24.00
2023-05-10T01:49:10.364Z,24.10
2023-05-10T01:50:10.388Z,25.00
2023-05-10T01:51:10.182Z,23.10
2023-05-10T01:52:10.300Z,22.70
2023-05-10T01:53:10.369Z,23.20
2023-05-10T01:54:10.285Z,21.00
2023-05-10T01:55:10.288Z,22.20
2023-05-10T01:56:10.293Z,22.80
2023-05-10T01:57:10.376Z,21.80
2023-05-10T01:58:10.320Z,21.30
2023-05-10T01:59:10.210Z,21.40
2023-05-10T02:00:10.080Z,21.80
2023-05-10T02:01:10.268Z,21.40
2023-05-10T02:02:10.261Z,21.40
2023-05-10T02:03:10.371Z,21.70
2023-05-10T02:04:10.281Z,21.40
2023-05-10T02:05:10.156Z,21.40
2023-05-10T02:06:10.159Z,21.60
2023-05-10T02:07:10.158Z,22.50
2023-05-10T02:08:10.259Z,21.60
2023-05-10T02:09:10.006Z,21.60
2023-05-10T02:10:10.128Z,21.80
2023-05-10T02:11:10.133Z,23.80
2023-05-10T02:12:10.142Z,22.60
2023-05-10T02:13:10.275Z,23.60
2023-05-10T02:14:10.184Z,23.70
2023-05-10T02:15:10.183Z,23.40
2023-05-10T02:16:10.063Z,21.30
2023-05-10T02:17:10.034Z,22.80
2023-05-10T02:18:10.148Z,22.80
2023-05-10T02:19:10.092Z,23.90
2023-05-10T02:20:10.102Z,22.80
2023-05-10T02:21:09.978Z,20.60
2023-05-10T02:22:10.025Z,21.50
2023-05-10T02:23:10.017Z,22.00
2023-05-10T02:24:10.041Z,22.30
2023-05-10T02:25:10.100Z,21.20
2023-05-10T02:26:10.026Z,21.30
2023-05-10T02:27:10.067Z,21.50
2023-05-10T02:28:09.997Z,21.90
2023-05-10T02:29:09.933Z,20.30
2023-05-10T02:30:10.019Z,21.50
2023-05-10T02:31:09.930Z,21.40
2023-05-10T02:32:10.011Z,21.20
2023-05-10T02:33:09.763Z,20.40
2023-05-10T02:34:09.966Z,20.20
2023-05-10T02:35:09.892Z,19.90
2023-05-10T02:36:09.975Z,18.50
2023-05-10T02:37:09.834Z,18.70
2023-05-10T02:38:09.826Z,17.90
2023-05-10T02:39:09.817Z,16.50
2023-05-10T02:40:09.833Z,16.60
2023-05-10T02:41:09.812Z,15.90
2023-05-10T02:42:17.163Z,15.50
2023-05-10T02:43:09.812Z,15.00
2023-05-10T02:44:09.748Z,15.20
2023-05-10T02:45:09.759Z,15.60
2023-05-10T02:46:09.775Z,15.30
2023-05-10T02:47:09.856Z,15.50
2023-05-10T02:48:09.789Z,14.00
2023-05-10T02:49:09.622Z,14.50
2023-05-10T02:50:09.730Z,12.70
2023-05-10T02:51:09.753Z,13.30
2023-05-10T02:52:09.781Z,13.30
2023-05-10T02:53:09.713Z,11.40
2023-05-10T02:54:09.612Z,7.60
2023-05-10T02:55:09.675Z,5.60
2023-05-10T02:56:09.660Z,5.40
2023-05-10T02:57:09.648Z,5.40
2023-05-10T02:58:09.723Z,6.80
2023-05-10T02:59:09.642Z,6.60
2023-05-10T03:00:09.643Z,5.90
2023-05-10T03:01:09.704Z,5.10
2023-05-10T03:02:09.575Z,5.40
2023-05-10T03:03:09.835Z,3.90
2023-05-10T03:04:09.665Z,5.20
2023-05-10T03:05:09.564Z,4.60
2023-05-10T03:06:09.531Z,3.70
2023-05-10T03:07:09.446Z,3.00
2023-05-10T03:08:09.534Z,3.00
2023-05-10T03:09:09.546Z,2.60
2023-05-10T03:10:09.476Z,2.90
2023-05-10T03:11:09.465Z,3.00
2023-05-10T03:12:09.462Z,5.20
2023-05-10T03:13:09.509Z,2.60
2023-05-10T03:14:09.543Z,3.30
2023-05-10T03:15:09.537Z,3.70
2023-05-10T03:16:09.556Z,2.80
2023-05-10T03:17:09.424Z,2.40
2023-05-10T03:18:09.415Z,3.40
2023-05-10T03:19:09.330Z,3.20
2023-05-10T03:20:09.407Z,3.50
2023-05-10T03:21:09.324Z,3.30
2023-05-10T03:22:09.332Z,3.50
2023-05-10T03:23:09.341Z,3.40
2023-05-10T03:24:09.349Z,3.00
2023-05-10T03:25:09.435Z,4.70
2023-05-10T03:26:09.294Z,3.40
2023-05-10T03:27:09.312Z,3.80
2023-05-10T03:28:09.317Z,4.60
2023-05-10T03:29:09.178Z,3.80
2023-05-10T03:30:09.096Z,3.30
2023-05-10T03:31:09.343Z,2.50
2023-05-10T03:32:09.209Z,3.30
2023-05-10T03:33:09.266Z,3.30
2023-05-10T03:34:09.331Z,4.20
2023-05-10T03:35:09.226Z,3.70
2023-05-10T03:36:09.169Z,3.90
2023-05-10T03:37:09.251Z,5.70
2023-05-10T03:38:09.176Z,4.30
2023-05-10T03:39:09.272Z,4.90
2023-05-10T03:40:09.133Z,5.20
2023-05-10T03:41:09.252Z,6.10
2023-05-10T03:42:09.205Z,6.20
2023-05-10T03:43:09.160Z,7.10
2023-05-10T03:44:09.027Z,5.00
2023-05-10T03:45:08.929Z,5.30
2023-05-10T03:46:09.126Z,6.70
2023-05-10T03:47:09.196Z,8.10
2023-05-10T03:48:09.051Z,6.40
2023-05-10T03:49:08.902Z,9.60
2023-05-10T03:50:09.055Z,7.60
2023-05-10T03:51:08.961Z,8.40
2023-05-10T03:52:08.983Z,8.40
2023-05-10T03:53:08.981Z,8.40
2023-05-10T03:54:09.098Z,8.30
2023-05-10T03:55:08.957Z,9.60
2023-05-10T03:56:09.062Z,10.70
2023-05-10T03:57:09.142Z,9.70
2023-05-10T03:58:08.977Z,10.10
2023-05-10T03:59:09.093Z,10.70
2023-05-10T04:00:08.761Z,10.00
2023-05-10T04:01:08.881Z,11.40
2023-05-10T04:02:08.952Z,10.50
2023-05-10T04:03:08.979Z,11.60
2023-05-10T04:04:08.916Z,12.20
2023-05-10T04:05:08.922Z,11.80
2023-05-10T04:06:09.001Z,11.90
2023-05-10T04:07:08.847Z,11.80
2023-05-10T04:08:08.904Z,11.80
2023-05-10T04:09:08.836Z,12.20
2023-05-10T04:10:08.669Z,12.40
2023-05-10T04:11:08.799Z,12.60
2023-05-10T04:12:10.728Z,12.10
2023-05-10T04:13:08.665Z,12.20
2023-05-10T04:14:08.639Z,12.10
2023-05-10T04:15:08.843Z,12.00
2023-05-10T04:16:08.777Z,12.40
2023-05-10T04:17:08.874Z,11.10
2023-05-10T04:18:09.025Z,12.20
2023-05-10T04:19:08.759Z,12.50
2023-05-10T04:20:08.671Z,12.20
2023-05-10T04:21:08.675Z,12.60
2023-05-10T04:22:08.673Z,12.00
2023-05-10T04:23:08.679Z,12.90
2023-05-10T04:24:08.501Z,12.80
2023-05-10T04:25:08.516Z,12.10
2023-05-10T04:26:08.701Z,12.90
2023-05-10T04:27:08.630Z,12.10
2023-05-10T04:28:08.801Z,12.50
2023-05-10T04:29:08.590Z,12.60
2023-05-10T04:30:08.590Z,12.70
2023-05-10T04:31:08.672Z,12.80
2023-05-10T04:32:08.691Z,13.70
2023-05-10T04:33:08.591Z,12.80
2023-05-10T04:34:08.661Z,13.70
2023-05-10T04:35:08.534Z,13.00
2023-05-10T04:36:08.727Z,13.00
2023-05-10T04:37:08.525Z,13.10
2023-05-10T04:38:08.507Z,14.10
2023-05-10T04:39:08.527Z,13.40
2023-05-10T04:40:08.368Z,12.60
2023-05-10T04:41:08.589Z,14.00
2023-05-10T04:42:08.445Z,13.20
2023-05-10T04:43:08.310Z,13.30
2023-05-10T04:44:08.323Z,12.40
2023-05-10T04:45:08.332Z,12.70
2023-05-10T04:46:08.752Z,11.60
2023-05-10T04:48:08.318Z,10.80
2023-05-10T04:49:08.366Z,11.00
2023-05-10T04:50:08.369Z,10.90
2023-05-10T04:51:08.265Z,11.40
2023-05-10T04:52:08.457Z,11.20
2023-05-10T04:53:08.396Z,10.40
2023-05-10T04:54:08.272Z,10.30
2023-05-10T04:55:08.261Z,10.20
2023-05-10T04:56:09.079Z,8.70
2023-05-10T04:57:08.221Z,9.50
2023-05-10T04:58:08.185Z,9.10
2023-05-10T04:59:08.133Z,8.20
2023-05-10T05:00:08.091Z,8.40
2023-05-10T05:01:08.128Z,7.70
2023-05-10T05:02:08.327Z,6.60
2023-05-10T05:03:08.359Z,6.50
2023-05-10T05:04:08.245Z,5.60
2023-05-10T05:05:08.140Z,6.40
2023-05-10T05:06:08.228Z,5.50
2023-05-10T05:07:08.158Z,4.20
2023-05-10T05:08:08.321Z,3.20
2023-05-10T05:09:08.243Z,5.40
2023-05-10T05:10:08.185Z,3.40
2023-05-10T05:11:08.175Z,4.30
2023-05-10T05:12:08.265Z,2.80
2023-05-10T05:13:08.258Z,2.90
2023-05-10T05:14:08.190Z,2.30
2023-05-10T05:15:09.747Z,2.60
2023-05-10T05:16:08.216Z,2.90
2023-05-10T05:17:08.063Z,3.00
2023-05-10T05:18:08.224Z,2.80
2023-05-10T05:19:08.010Z,3.60
2023-05-10T05:20:08.098Z,2.40
2023-05-10T05:21:08.033Z,3.80
2023-05-10T05:22:08.041Z,3.10
2023-05-10T05:23:08.058Z,2.70
2023-05-10T05:24:08.079Z,5.10
2023-05-10T05:25:08.099Z,2.10
2023-05-10T05:26:08.052Z,1.60
2023-05-10T05:27:08.007Z,3.30
2023-05-10T05:28:08.038Z,2.10
2023-05-10T05:29:07.939Z,2.00
2023-05-10T05:30:08.093Z,1.90
2023-05-10T05:31:07.944Z,2.30
2023-05-10T05:32:08.007Z,1.90
2023-05-10T05:33:07.771Z,1.60
2023-05-10T05:34:07.982Z,1.50
2023-05-10T05:35:07.853Z,2.20
2023-05-10T05:36:07.857Z,2.10
2023-05-10T05:37:07.719Z,2.00
2023-05-10T05:38:07.712Z,1.90
2023-05-10T05:39:07.907Z,1.90
2023-05-10T05:40:08.026Z,1.50
2023-05-10T05:41:08.038Z,2.60
2023-05-10T05:42:08.035Z,2.10
2023-05-10T05:43:07.943Z,2.20
2023-05-10T05:44:08.037Z,2.10
2023-05-10T05:45:07.940Z,3.00
2023-05-10T05:46:07.872Z,1.60
2023-05-10T05:47:07.853Z,2.60
2023-05-10T05:48:07.950Z,1.10
2023-05-10T05:49:07.792Z,1.20
2023-05-10T05:50:07.938Z,2.00
2023-05-10T05:51:07.831Z,1.90
2023-05-10T05:52:07.731Z,2.10
2023-05-10T05:53:07.710Z,3.20
2023-05-10T05:54:07.933Z,2.00
2023-05-10T05:55:07.581Z,2.70
2023-05-10T05:56:07.512Z,3.10
2023-05-10T05:57:07.907Z,2.30
2023-05-10T05:58:07.746Z,1.60
2023-05-10T05:59:07.868Z,1.50
2023-05-10T06:00:07.480Z,1.90
2023-05-10T06:01:07.467Z,2.50
2023-05-10T06:02:07.616Z,1.80
2023-05-10T06:03:07.771Z,2.90
2023-05-10T06:04:07.636Z,2.40
2023-05-10T06:05:07.455Z,3.50
2023-05-10T06:06:07.538Z,2.40
2023-05-10T06:07:07.456Z,2.50
2023-05-10T06:08:07.424Z,2.60
2023-05-10T06:09:07.389Z,2.50
2023-05-10T06:10:07.358Z,1.90
2023-05-10T06:11:07.561Z,2.30
2023-05-10T06:12:07.382Z,2.70
2023-05-10T06:13:07.590Z,2.30
2023-05-10T06:14:07.382Z,2.40
2023-05-10T06:15:07.329Z,3.00
2023-05-10T06:16:07.496Z,2.50
2023-05-10T06:17:07.363Z,4.80
2023-05-10T06:18:07.371Z,3.30
2023-05-10T06:19:07.405Z,4.30
2023-05-10T06:20:07.264Z,3.50
2023-05-10T06:21:07.514Z,2.80
2023-05-10T06:22:07.244Z,2.60
2023-05-10T06:23:07.409Z,3.60
2023-05-10T06:24:07.229Z,4.60
2023-05-10T06:25:07.250Z,3.70
2023-05-10T06:26:07.396Z,3.20
2023-05-10T06:27:07.302Z,3.10
2023-05-10T06:28:07.613Z,4.00
2023-05-10T06:29:07.343Z,4.10
2023-05-10T06:30:13.046Z,4.30
2023-05-10T06:31:07.458Z,4.10
2023-05-10T06:32:07.135Z,3.80
2023-05-10T06:33:07.316Z,3.50
2023-05-10T06:34:07.185Z,3.20
2023-05-10T06:35:07.130Z,4.10
2023-05-10T06:36:07.100Z,3.80
2023-05-10T06:37:07.368Z,3.90
2023-05-10T06:38:07.075Z,3.50
2023-05-10T06:39:07.053Z,4.50
2023-05-10T06:40:07.285Z,4.30
2023-05-10T06:41:07.257Z,4.50
2023-05-10T06:42:07.225Z,4.60
2023-05-10T06:43:07.367Z,3.50
2023-05-10T06:44:07.348Z,5.30
2023-05-10T06:45:06.999Z,5.80
2023-05-10T06:46:07.159Z,4.60
2023-05-10T06:47:07.030Z,5.00
2023-05-10T06:48:07.000Z,6.30
2023-05-10T06:49:07.098Z,4.60
2023-05-10T06:50:07.241Z,4.10
2023-05-10T06:51:06.952Z,4.10
2023-05-10T06:52:06.920Z,4.20
2023-05-10T06:53:06.917Z,3.50
2023-05-10T06:54:06.990Z,3.90
2023-05-10T06:55:07.265Z,4.70
2023-05-10T06:56:06.887Z,4.20
2023-05-10T06:57:16.185Z,3.80
2023-05-10T06:58:07.067Z,2.70
2023-05-10T06:59:07.059Z,2.50
2023-05-10T07:00:06.976Z,3.60
2023-05-10T07:01:07.053Z,3.30
2023-05-10T07:02:07.105Z,2.90
2023-05-10T07:03:06.887Z,2.70
2023-05-10T07:04:06.796Z,3.60
2023-05-10T07:05:06.873Z,3.30
2023-05-10T07:06:07.185Z,3.40
2023-05-10T07:07:06.815Z,4.00
2023-05-10T07:08:06.731Z,3.80
2023-05-10T07:09:06.919Z,3.60
2023-05-10T07:10:06.957Z,3.40
2023-05-10T07:11:06.767Z,3.70
2023-05-10T07:12:08.037Z,4.70
2023-05-10T07:13:07.187Z,5.50
2023-05-10T07:14:06.969Z,3.80
2023-05-10T07:15:06.863Z,4.00
2023-05-10T07:16:06.707Z,3.80
2023-05-10T07:17:06.710Z,4.10
2023-05-10T07:18:06.736Z,5.60
2023-05-10T07:19:06.870Z,4.70
2023-05-10T07:20:06.724Z,3.30
2023-05-10T07:21:06.773Z,4.20
2023-05-10T07:22:06.633Z,3.70
2023-05-10T07:23:06.631Z,3.40
2023-05-10T07:24:06.679Z,4.90
2023-05-10T07:25:06.761Z,4.70
2023-05-10T07:26:06.827Z,3.20
2023-05-10T07:27:06.576Z,5.80
2023-05-10T07:28:06.616Z,4.00
2023-05-10T07:29:06.799Z,3.60
2023-05-10T07:30:06.534Z,5.00
2023-05-10T07:31:06.535Z,3.90
2023-05-10T07:32:06.565Z,5.10
2023-05-10T07:33:06.513Z,4.80
2023-05-10T07:34:06.511Z,3.20
2023-05-10T07:35:06.546Z,4.80
2023-05-10T07:36:06.478Z,5.20
2023-05-10T07:37:06.441Z,4.90
2023-05-10T07:38:06.463Z,4.40
2023-05-10T07:39:06.465Z,4.60
2023-05-10T07:40:06.462Z,6.30
2023-05-10T07:41:06.425Z,3.50
2023-05-10T07:42:06.629Z,2.90
2023-05-10T07:43:06.500Z,2.70
2023-05-10T07:44:06.447Z,4.20
2023-05-10T07:45:06.440Z,4.60
2023-05-10T07:46:06.616Z,5.20
2023-05-10T07:47:06.347Z,4.90
2023-05-10T07:48:06.377Z,5.30
2023-05-10T07:49:06.473Z,4.70
2023-05-10T07:50:06.357Z,4.20
2023-05-10T07:51:06.341Z,4.30
2023-05-10T07:52:06.446Z,5.70
2023-05-10T07:53:06.287Z,4.50
2023-05-10T07:54:06.359Z,3.50
2023-05-10T07:55:06.266Z,5.10
2023-05-10T07:56:06.293Z,5.70
2023-05-10T07:57:06.322Z,4.50
2023-05-10T07:58:06.363Z,4.20
2023-05-10T07:59:06.431Z,5.40
2023-05-10T08:00:06.271Z,5.00
2023-05-10T08:01:06.189Z,6.80
2023-05-10T08:02:06.319Z,6.10
2023-05-10T08:03:06.298Z,5.70
2023-05-10T08:04:06.368Z,5.70
2023-05-10T08:05:06.167Z,4.80
2023-05-10T08:06:06.182Z,5.60
2023-05-10T08:07:06.131Z,7.10
2023-05-10T08:08:06.162Z,5.10
2023-05-10T08:09:06.129Z,5.70
2023-05-10T08:10:06.216Z,5.60
2023-05-10T08:11:06.128Z,6.10
2023-05-10T08:12:06.170Z,5.50
2023-05-10T08:13:06.140Z,6.50
2023-05-10T08:14:06.112Z,6.70
2023-05-10T08:15:06.073Z,7.40
2023-05-10T08:16:06.128Z,7.60
2023-05-10T08:17:06.037Z,7.60
2023-05-10T08:18:06.253Z,8.00
2023-05-10T08:19:06.478Z,7.80
2023-05-10T08:20:06.013Z,7.90
2023-05-10T08:21:06.064Z,7.90
2023-05-10T08:22:06.087Z,7.50
2023-05-10T08:23:06.020Z,9.00
2023-05-10T08:24:06.041Z,9.50
2023-05-10T08:25:05.974Z,9.40
2023-05-10T08:26:06.074Z,11.10
2023-05-10T08:27:05.990Z,11.30
2023-05-10T08:28:06.039Z,11.60
2023-05-10T08:29:05.967Z,11.10
2023-05-10T08:30:05.933Z,11.60
2023-05-10T08:31:06.163Z,12.60
2023-05-10T08:32:05.890Z,12.50
2023-05-10T08:33:06.101Z,14.60
2023-05-10T08:34:06.111Z,14.90
2023-05-10T08:35:06.059Z,11.90
2023-05-10T08:36:06.017Z,12.80
2023-05-10T08:37:06.012Z,13.70
2023-05-10T08:38:05.873Z,14.90
2023-05-10T08:39:09.237Z,14.40
2023-05-10T08:40:05.946Z,14.10
2023-05-10T08:41:06.053Z,14.10
2023-05-10T08:42:05.788Z,15.70
2023-05-10T08:43:05.851Z,17.00
2023-05-10T08:44:05.928Z,15.10
2023-05-10T08:45:05.772Z,14.00
2023-05-10T08:46:05.821Z,15.30
2023-05-10T08:47:06.018Z,14.20
2023-05-10T08:48:05.756Z,14.00
2023-05-10T08:49:05.749Z,15.70
2023-05-10T08:50:05.929Z,14.10
2023-05-10T08:51:05.690Z,14.70
2023-05-10T08:52:05.694Z,13.90
2023-05-10T08:53:05.662Z,16.60
2023-05-10T08:54:05.718Z,15.30
2023-05-10T08:55:05.647Z,14.30
2023-05-10T08:56:05.641Z,16.10
2023-05-10T08:57:05.807Z,14.60
2023-05-10T08:58:05.633Z,14.00
2023-05-10T08:59:05.779Z,15.30
2023-05-10T09:00:05.887Z,13.60
2023-05-10T09:01:05.590Z,14.80
2023-05-10T09:02:05.668Z,13.40
2023-05-10T09:03:05.660Z,14.00
2023-05-10T09:04:05.636Z,14.40
2023-05-10T09:05:05.631Z,15.30
2023-05-10T09:06:05.541Z,15.30
2023-05-10T09:07:05.517Z,14.70
2023-05-10T09:08:05.529Z,14.30
2023-05-10T09:09:05.483Z,15.00
2023-05-10T09:10:05.541Z,15.70
2023-05-10T09:11:05.489Z,15.60
2023-05-10T09:12:05.513Z,16.20
2023-05-10T09:13:05.486Z,14.90
2023-05-10T09:14:05.512Z,15.70
2023-05-10T09:15:05.661Z,15.90
2023-05-10T09:16:17.463Z,15.10
2023-05-10T09:17:05.648Z,16.00
2023-05-10T09:18:05.738Z,14.80
2023-05-10T09:19:05.611Z,15.50
2023-05-10T09:20:05.560Z,16.10
2023-05-10T09:21:05.568Z,14.90
2023-05-10T09:22:05.574Z,14.30
2023-05-10T09:23:05.699Z,13.90
2023-05-10T09:24:05.566Z,14.10
2023-05-10T09:25:05.606Z,13.60
2023-05-10T09:26:05.442Z,15.20
2023-05-10T09:27:05.503Z,13.90
2023-05-10T09:28:05.493Z,14.30
2023-05-10T09:29:05.476Z,14.60
2023-05-10T09:30:05.518Z,13.30
2023-05-10T09:31:05.427Z,15.00
2023-05-10T09:32:05.318Z,13.90
2023-05-10T09:33:05.484Z,13.20
2023-05-10T09:34:05.470Z,14.10
2023-05-10T09:35:05.444Z,14.80
2023-05-10T09:36:05.370Z,14.00
2023-05-10T09:37:05.492Z,13.20
2023-05-10T09:38:05.417Z,14.90
2023-05-10T09:39:05.392Z,16.40
2023-05-10T09:40:05.402Z,15.30
2023-05-10T09:41:05.342Z,15.70
2023-05-10T09:42:05.195Z,16.00
2023-05-10T09:43:05.328Z,16.00
2023-05-10T09:44:05.300Z,14.20
2023-05-10T09:45:05.296Z,15.60
2023-05-10T09:46:05.418Z,14.50
2023-05-10T09:47:05.246Z,12.20
2023-05-10T09:48:05.268Z,14.00
2023-05-10T09:49:05.214Z,13.10
2023-05-10T09:50:05.131Z,13.40
2023-05-10T09:51:05.180Z,12.40
2023-05-10T09:52:05.116Z,12.90
2023-05-10T09:53:05.129Z,12.70
2023-05-10T09:54:05.028Z,12.40
2023-05-10T09:55:05.254Z,13.20
2023-05-10T09:56:05.182Z,12.50
2023-05-10T09:57:05.010Z,13.30
2023-05-10T09:58:04.980Z,12.80
2023-05-10T09:59:04.990Z,13.40
2023-05-10T10:00:04.966Z,13.40
2023-05-10T10:01:05.063Z,14.10
2023-05-10T10:02:05.123Z,14.80
2023-05-10T10:03:05.129Z,13.80
2023-05-10T10:04:04.939Z,14.10
2023-05-10T10:05:05.352Z,13.80
2023-05-10T10:06:05.296Z,13.40
2023-05-10T10:07:05.261Z,15.20
2023-05-10T10:08:04.950Z,14.90
2023-05-10T10:09:05.108Z,15.20
2023-05-10T10:10:05.046Z,15.00
2023-05-10T10:11:05.158Z,14.80
2023-05-10T10:12:05.012Z,13.70
2023-05-10T10:13:05.040Z,15.60
2023-05-10T10:14:04.940Z,15.20
2023-05-10T10:15:05.165Z,14.00
2023-05-10T10:16:04.958Z,14.70
2023-05-10T10:17:08.719Z,14.30
2023-05-10T10:18:04.877Z,16.00
2023-05-10T10:19:04.986Z,14.70
2023-05-10T10:20:04.929Z,15.30
2023-05-10T10:21:04.871Z,17.50
2023-05-10T10:22:04.723Z,15.70
2023-05-10T10:23:04.810Z,15.10
2023-05-10T10:24:04.891Z,16.10
2023-05-10T10:25:04.732Z,16.20
2023-05-10T10:26:04.764Z,14.70
2023-05-10T10:27:04.935Z,15.90
2023-05-10T10:28:04.828Z,15.70
2023-05-10T10:29:04.890Z,17.20
2023-05-10T10:30:04.736Z,15.50
2023-05-10T10:31:04.704Z,16.40
2023-05-10T10:32:04.635Z,15.90
2023-05-10T10:33:10.368Z,16.50
2023-05-10T10:34:04.605Z,15.50
2023-05-10T10:35:04.584Z,15.70
2023-05-10T10:36:04.593Z,16.50
2023-05-10T10:37:04.824Z,17.30
2023-05-10T10:38:04.627Z,15.00
2023-05-10T10:39:04.885Z,16.10
2023-05-10T10:40:04.637Z,15.80
2023-05-10T10:41:04.705Z,15.30
2023-05-10T10:42:04.707Z,14.70
2023-05-10T10:43:04.614Z,15.20
2023-05-10T10:44:04.723Z,15.10
2023-05-10T10:45:04.662Z,16.70
2023-05-10T10:46:04.683Z,16.40
2023-05-10T10:47:04.947Z,15.60
2023-05-10T10:48:04.896Z,16.90
2023-05-10T10:49:04.613Z,15.20
2023-05-10T10:50:04.748Z,15.60
2023-05-10T10:51:04.548Z,15.90
2023-05-10T10:52:04.404Z,18.40
2023-05-10T10:53:04.456Z,15.20
2023-05-10T10:54:04.426Z,15.40
2023-05-10T10:55:04.516Z,15.30
2023-05-10T10:56:04.603Z,15.20
2023-05-10T10:57:04.534Z,15.40
2023-05-10T10:58:04.543Z,14.80
2023-05-10T10:59:04.421Z,16.30
2023-05-10T11:00:04.531Z,16.10
2023-05-10T11:01:04.411Z,15.10
2023-05-10T11:02:04.454Z,14.90
2023-05-10T11:03:04.432Z,15.30
2023-05-10T11:04:04.541Z,15.30
2023-05-10T11:05:04.549Z,15.50
2023-05-10T11:06:04.572Z,15.40
2023-05-10T11:07:04.500Z,14.60
2023-05-10T11:08:04.413Z,14.50
2023-05-10T11:09:04.549Z,15.20
2023-05-10T11:10:04.457Z,14.30
2023-05-10T11:11:04.650Z,14.70
2023-05-10T11:12:04.436Z,13.00
2023-05-10T11:13:04.368Z,14.60
2023-05-10T11:14:04.393Z,13.90
2023-05-10T11:15:04.514Z,14.70
2023-05-10T11:16:04.527Z,14.20
2023-05-10T11:17:04.321Z,15.40
2023-05-10T11:18:04.288Z,15.40
2023-05-10T11:19:04.511Z,14.60
2023-05-10T11:20:04.359Z,13.40
2023-05-10T11:21:04.392Z,13.50
2023-05-10T11:22:04.291Z,13.00
2023-05-10T11:23:04.281Z,12.60
2023-05-10T11:24:04.267Z,12.50
2023-05-10T11:25:04.377Z,13.30
2023-05-10T11:26:04.277Z,12.00
2023-05-10T11:27:04.374Z,13.20
2023-05-10T11:28:04.243Z,14.20
2023-05-10T11:29:04.343Z,14.90
2023-05-10T11:30:13.690Z,13.00
2023-05-10T11:31:04.088Z,12.70
2023-05-10T11:32:04.022Z,13.00
2023-05-10T11:33:04.396Z,13.60
2023-05-10T11:34:04.066Z,14.00
2023-05-10T11:35:04.296Z,14.50
2023-05-10T11:36:04.160Z,14.90
2023-05-10T11:37:04.521Z,13.40
2023-05-10T11:38:04.019Z,13.00
2023-05-10T11:39:04.073Z,13.00
2023-05-10T11:40:04.151Z,12.90
2023-05-10T11:41:04.116Z,14.90
2023-05-10T11:42:04.217Z,14.00
2023-05-10T11:43:03.987Z,13.10
2023-05-10T11:44:03.956Z,13.00
2023-05-10T11:45:04.119Z,13.00
2023-05-10T11:46:03.970Z,11.10
2023-05-10T11:47:04.291Z,13.10
2023-05-10T11:48:03.989Z,11.60
2023-05-10T11:49:03.975Z,13.20
2023-05-10T11:50:04.071Z,11.90
2023-05-10T11:51:04.014Z,11.80
2023-05-10T11:52:03.891Z,12.80
2023-05-10T11:53:03.873Z,12.60
2023-05-10T11:54:03.865Z,11.60
2023-05-10T11:55:03.782Z,14.40
2023-05-10T11:56:03.794Z,14.30
2023-05-10T11:57:03.859Z,12.60
2023-05-10T11:58:03.783Z,12.80
2023-05-10T11:59:03.826Z,13.80
2023-05-10T12:00:03.734Z,12.60
2023-05-10T12:01:03.740Z,13.40
2023-05-10T12:02:03.730Z,14.90
2023-05-10T12:03:03.918Z,13.90
2023-05-10T12:04:03.909Z,14.90
2023-05-10T12:05:03.884Z,12.40
2023-05-10T12:06:03.756Z,13.90
2023-05-10T12:07:03.729Z,12.80
2023-05-10T12:08:03.648Z,13.00
2023-05-10T12:09:03.748Z,13.50
2023-05-10T12:10:03.689Z,13.50
2023-05-10T12:11:03.667Z,13.90
2023-05-10T12:12:03.660Z,11.80
2023-05-10T12:13:03.599Z,12.00
2023-05-10T12:14:03.605Z,11.80
2023-05-10T12:15:03.641Z,12.80
2023-05-10T12:16:03.648Z,12.00
2023-05-10T12:17:03.581Z,12.70
2023-05-10T12:18:03.628Z,11.10
2023-05-10T12:19:03.677Z,13.20
2023-05-10T12:20:03.620Z,12.00
2023-05-10T12:21:03.606Z,13.10
2023-05-10T12:22:03.558Z,12.00
2023-05-10T12:23:03.530Z,12.90
2023-05-10T12:24:03.466Z,12.70
2023-05-10T12:25:03.503Z,11.90
2023-05-10T12:26:03.623Z,12.20
2023-05-10T12:27:03.514Z,13.40
2023-05-10T12:28:03.481Z,13.90
2023-05-10T12:29:03.482Z,13.70
2023-05-10T12:30:03.414Z,14.50
2023-05-10T12:31:03.455Z,13.20
2023-05-10T12:32:03.678Z,13.80
2023-05-10T12:33:03.425Z,13.60
2023-05-10T12:34:03.486Z,15.30
2023-05-10T12:35:03.412Z,13.70
2023-05-10T12:36:03.581Z,14.70
2023-05-10T12:37:03.507Z,14.30
2023-05-10T12:38:03.485Z,13.90
2023-05-10T12:39:03.420Z,13.90
2023-05-10T12:40:03.422Z,13.20
2023-05-10T12:41:03.464Z,12.60
2023-05-10T12:42:03.343Z,13.90
2023-05-10T12:43:03.463Z,12.90
2023-05-10T12:44:03.466Z,13.20
2023-05-10T12:45:03.273Z,13.10
2023-05-10T12:46:03.281Z,11.80
2023-05-10T12:47:03.281Z,11.50
2023-05-10T12:48:03.257Z,11.00
2023-05-10T12:49:09.156Z,9.90
2023-05-10T12:50:03.357Z,9.90
2023-05-10T12:51:03.459Z,9.00
2023-05-10T12:52:03.171Z,9.20
2023-05-10T12:53:03.227Z,9.50
2023-05-10T12:54:03.348Z,9.20
2023-05-10T12:55:03.202Z,8.50
2023-05-10T12:56:03.397Z,9.50
2023-05-10T12:57:03.338Z,9.70
2023-05-10T12:58:03.347Z,8.50
2023-05-10T12:59:03.185Z,8.30
2023-05-10T13:00:03.368Z,8.60
2023-05-10T13:01:03.302Z,7.90
2023-05-10T13:02:03.175Z,8.20